F6255 Weather Reports


Display with metric or nautical units.
time (UTC)temp
F
wind
direction
speed
MPH
gust
MPH
rain 1hr
in
rain 24hr
in
rain mn
in
humidity
%
barometer
mb
20260903010132 81 92 1.0 2.0 0.00 0.00 0.00 90 1021.1
20260903004614 81 0 0.0 2.0 0.00 0.00 0.00 89 1021.1
20260903003100 82 92 1.0 3.0 0.00 0.00 0.00 88 1021.1
20260903001557 83 92 0.0 2.0 0.00 0.00 0.00 87 1021.1
20260903000056 84 92 1.0 2.0 0.00 0.00 0.00 85 1021.3
20260902234558 85 92 1.0 4.0 0.00 0.00 0.00 81 1021.3
20260902233104 88 46 1.0 2.0 0.00 0.00 0.00 77 1021.3
20260902231602 91 46 0.0 2.0 0.00 0.00 0.00 70 1021.3
20260902230125 94 46 0.0 2.0 0.00 0.00 0.00 65 1021.4
20260902224628 96 46 1.0 4.0 0.00 0.00 0.00 59 1021.5
20260902223121 95 130 1.0 4.0 0.00 0.00 0.00 60 1021.5
20260902221559 95 301 2.0 5.0 0.00 0.00 0.00 57 1021.6
20260902220400 96 78 1.0 5.0 0.00 0.00 0.00 57 1021.7
20260902213134 95 41 3.0 5.0 0.00 0.00 0.00 56 1021.6
20260902211735 95 28 1.0 8.0 0.00 0.00 0.00 57 1021.8
20260902202016 94 23 1.0 8.0 0.00 0.00 0.00 58 1022.1
20260902194558 95 48 2.0 7.0 0.00 0.00 0.00 56 1022.4
20260902193102 94 79 2.0 8.0 0.00 0.00 0.00 58 1022.3
20260902191557 94 66 2.0 11.0 0.00 0.00 0.00 60 1022.5
20260902190100 94 5 3.0 9.0 0.00 0.00 0.00 60 1022.6
20260902184601 93 108 1.0 6.0 0.00 0.00 0.00 61 1022.6
20260902183113 93 155 1.0 8.0 0.00 0.00 0.00 61 1022.6
20260902181613 94 53 3.0 9.0 0.00 0.00 0.00 60 1022.6
20260902180151 93 327 2.0 7.0 0.00 0.00 0.00 59 1022.8
20260902174558 93 91 3.0 8.0 0.00 0.00 0.00 61 1022.8
20260902173117 92 0 2.0 8.0 0.00 0.00 0.00 62 1023.0
20260902171602 92 360 1.0 9.0 0.00 0.00 0.00 64 1023.4
20260902164626 91 47 3.0 9.0 0.00 0.00 0.00 65 1023.7
20260902163104 91 36 2.0 7.0 0.00 0.00 0.00 66 1023.9
20260902161607 90 15 1.0 5.0 0.00 0.00 0.00 69 1024.0
20260902160103 89 125 3.0 8.0 0.00 0.00 0.00 70 1024.1
20260902154557 88 23 2.0 6.0 0.00 0.00 0.00 72 1024.0
20260902153105 87 148 1.0 4.0 0.00 0.00 0.00 73 1024.1
20260902151601 87 148 0.0 5.0 0.00 0.00 0.00 75 1023.9
20260902150109 86 174 1.0 7.0 0.00 0.00 0.00 75 1024.0
20260902144607 85 51 1.0 4.0 0.00 0.00 0.00 77 1024.1
20260902143112 84 103 1.0 4.0 0.00 0.00 0.00 78 1023.9
20260902141602 83 108 1.0 4.0 0.00 0.00 0.00 81 1023.9
20260902140059 82 136 1.0 6.0 0.00 0.00 0.00 83 1023.9
20260902134600 81 52 0.0 4.0 0.00 0.00 0.00 86 1023.9
20260902133101 79 40 1.0 4.0 0.00 0.00 0.00 88 1024.0
20260902131554 78 0 1.0 4.0 0.00 0.00 0.00 91 1024.0
20260902130105 76 19 0.0 4.0 0.00 0.00 0.00 96 1024.0
20260902124600 74 45 0.0 1.0 0.00 0.00 0.00 99 1023.9
20260902123057 73 0 0.0 0.0 0.00 0.00 0.00 99 1023.7
20260902121602 73 0 0.0 0.0 0.00 0.00 0.00 98 1023.7
20260902120059 72 0 0.0 0.0 0.00 0.00 0.00 98 1023.6
20260902114558 72 0 0.0 0.0 0.00 0.00 0.00 98 1023.7
20260902111656 72 0 0.0 0.0 0.00 0.00 0.00 98 1023.2
20260902093515 73 0 0.0 0.0 0.00 0.00 0.00 98 1022.8
20260902070419 74 0 0.0 1.0 0.00 0.00 0.00 97 1022.1
20260902064933 74 0 0.0 1.0 0.00 0.00 0.00 97 1022.2
20260902063419 74 0 0.0 1.0 0.00 0.00 0.00 97 1022.2
20260902061619 74 0 0.0 0.0 0.00 0.00 0.00 97 1022.3
20260902060109 74 0 0.0 1.0 0.00 0.00 0.00 97 1022.4
20260902054556 74 0 0.0 1.0 0.00 0.00 0.00 97 1022.4
20260902053107 74 0 0.0 1.0 0.00 0.00 0.00 97 1022.4
20260902051615 74 0 0.0 1.0 0.00 0.00 0.00 96 1022.4
20260902044629 75 0 0.0 1.0 0.00 0.00 0.00 96 1022.3
20260902043058 75 76 0.0 1.0 0.00 0.00 0.00 96 1022.3
20260902041556 75 0 0.0 1.0 0.00 0.00 0.00 96 1022.4
20260902034644 75 76 0.0 1.0 0.00 0.00 0.00 95 1022.3
20260902033104 76 0 0.0 1.0 0.00 0.00 0.00 95 1022.4
20260902031612 76 0 0.0 1.0 0.00 0.00 0.00 95 1022.3
20260902030254 76 0 0.0 1.0 0.00 0.00 0.00 95 1022.3
20260902024601 76 76 0.0 1.0 0.00 0.00 0.00 94 1022.4
20260902023104 77 76 0.0 2.0 0.00 0.00 0.00 94 1022.5
20260902021636 77 0 0.0 2.0 0.00 0.00 0.00 93 1022.4
20260902020108 77 0 0.0 2.0 0.00 0.00 0.00 93 1022.3
20260902014644 78 76 0.0 2.0 0.00 0.00 0.00 93 1022.2
20260902013226 78 76 0.0 2.0 0.00 0.00 0.00 92 1022.2
20260902011558 78 76 0.0 2.0 0.00 0.00 0.00 91 1022.0